Time;durP1;ratioP1;P1;durP2;ratioP2;P2;SDS_P1;SDS_P2;PMS_P1;PMS_P2;Temp;Humidity;BMP_temperature;BMP_pressure;BME280_temperature;BME280_humidity;BME280_pressure;Samples;Min_cycle;Max_cycle;Signal;HPM_P1;HPM_P2
2021/11/16 00:00:02;;;;;;;;;;;;;;;;;;352688;28;964;-77
2021/11/16 00:00:13;;;;;;;;;;;;;;;;;;352712;28;1003;-77
2021/11/16 00:00:24;;;;;;;;;;;;;;;;;;352689;28;813;-77
2021/11/16 00:00:38;;;;;;;;;;;;;;;;;;352646;28;988;-76
2021/11/16 00:00:48;;;;;;;;;;;;;;;;;;352654;28;825;-77
2021/11/16 00:01:00;;;;;;;;;;;;;;;;;;352610;28;880;-77
2021/11/16 00:01:11;;;;;;;;;;;;;;;;;;352519;28;864;-77
2021/11/16 00:01:27;;;;;;;;;;;;;;;;;;352597;28;968;-77
2021/11/16 00:01:58;;;;;;;;;;;;;;;;;;346950;28;1142;-77
2021/11/16 00:02:09;;;;;;;;;;;;;;;;;;347048;28;1431;-77
2021/11/16 00:02:19;;;;;;;;;;;;;;;;;;349042;28;982;-77
2021/11/16 00:02:29;;;;;;;;;;;;;;;;;;351834;28;971;-77
2021/11/16 00:02:40;;;;;;;;;;;;;;;;;;351252;28;944;-77
2021/11/16 00:02:51;;;;;;;;;;;;;;;;;;351184;28;952;-76
2021/11/16 00:03:01;;;;;;;;;;;;;;;;;;351189;28;892;-76
2021/11/16 00:03:27;;;;;;;;;;;;;;;;;;351201;28;948;-77
2021/11/16 00:03:38;;;;;;;;;;;;;;;;;;351235;28;766;-76
2021/11/16 00:03:49;;;;;;;;;;;;;;;;;;351263;28;825;-77
2021/11/16 00:03:59;;;;;;;;;;;;;;;;;;351065;28;878;-77
2021/11/16 00:04:10;;;;;;;;;;;;;;;;;;351140;28;888;-76
2021/11/16 00:04:20;;;;;;;;;;;;;;;;;;352649;28;940;-77
2021/11/16 00:04:30;;;;;;;;;;;;;;;;;;352674;28;888;-77
2021/11/16 00:04:41;;;;;;;;;;;;;;;;;;352616;28;920;-76
2021/11/16 00:04:51;;;;;;;;;;;;;;;;;;352632;28;908;-77
2021/11/16 00:05:28;;;;;;;;;;;;;;;;;;352548;28;1235;-76
2021/11/16 00:05:39;;;;;;;;;;;;;;;;;;352484;28;1007;-76
2021/11/16 00:05:49;;;;;;;;;;;;;;;;;;352591;28;967;-77
2021/11/16 00:06:00;;;;;;;;;;;;;;;;;;352609;28;1040;-77
2021/11/16 00:06:10;;;;;;;;;;;;;;;;;;352605;28;801;-78
2021/11/16 00:06:21;;;;;;;;;;;;;;;;;;352608;28;932;-77
2021/11/16 00:06:32;;;;;;;;;;;;;;;;;;352762;28;908;-78
2021/11/16 00:06:46;;;;;;;;;;;;;;;;;;352664;28;758;-77
2021/11/16 00:06:57;;;;;;;;;;;;;;;;;;352652;28;821;-77
2021/11/16 00:07:07;;;;;;;;;;;;;;;;;;352632;28;817;-77
2021/11/16 00:07:18;;;;;;;;;;;;;;;;;;352562;28;983;-76
2021/11/16 00:07:34;;;;;;;;;;;;;;;;;;352645;28;994;-77
2021/11/16 00:07:47;;;;;;;;;;;;;;;;;;352527;28;900;-77
2021/11/16 00:07:58;;;;;;;;;;;;;;;;;;352574;28;1429;-76
2021/11/16 00:08:08;;;;;;;;;;;;;;;;;;352702;28;777;-77
2021/11/16 00:08:18;;;;;;;;;;;;;;;;;;352665;28;785;-77
2021/11/16 00:08:29;;;;;;;;;;;;;;;;;;352627;28;868;-76
2021/11/16 00:08:39;;;;;;;;;;;;;;;;;;352673;28;817;-77
2021/11/16 00:08:50;;;;;;;;;;;;;;;;;;352563;28;888;-78
2021/11/16 00:09:02;;;;;;;;;;;;;;;;;;352595;28;832;-76
2021/11/16 00:09:12;;;;;;;;;;;;;;;;;;352494;28;919;-77
2021/11/16 00:09:23;;;;;;;;;;;;;;;;;;352597;28;813;-77
2021/11/16 00:09:33;;;;;;;;;;;;;;;;;;352647;28;1004;-76
2021/11/16 00:09:45;;;;;;;;;;;;;;;;;;351090;28;1330;-77
2021/11/16 00:10:03;;;;;;;;;;;;;;;;;;351201;28;956;-77
2021/11/16 00:10:13;;;;;;;;;;;;;;;;;;351198;28;1184;-77
2021/11/16 00:10:24;;;;;;;;;;;;;;;;;;351224;28;837;-77
2021/11/16 00:10:35;;;;;;;;;;;;;;;;;;351241;28;913;-77
2021/11/16 00:10:46;;;;;;;;;;;;;;;;;;351948;28;928;-76
2021/11/16 00:10:56;;;;;;;;;;;;;;;;;;352646;28;861;-77
2021/11/16 00:11:06;;;;;;;;;;;;;;;;;;352655;28;876;-77
2021/11/16 00:11:17;;;;;;;;;;;;;;;;;;352608;28;954;-77
2021/11/16 00:11:27;;;;;;;;;;;;;;;;;;352653;28;798;-76
2021/11/16 00:11:38;;;;;;;;;;;;;;;;;;352607;28;1015;-77
2021/11/16 00:12:04;;;;;;;;;;;;;;;;;;352733;28;1003;-77
2021/11/16 00:12:14;;;;;;;;;;;;;;;;;;352435;28;1151;-77
2021/11/16 00:12:25;;;;;;;;;;;;;;;;;;352635;28;860;-77
2021/11/16 00:13:04;;;;;;;;;;;;;;;;;;349809;28;778;-77
2021/11/16 00:13:14;;;;;;;;;;;;;;;;;;349811;28;476;-77
2021/11/16 00:13:24;;;;;;;;;;;;;;;;;;349809;28;936;-77
2021/11/16 00:13:35;;;;;;;;;;;;;;;;;;348468;28;924;-77
2021/11/16 00:13:45;;;;;;;;;;;;;;;;;;348475;28;822;-77
2021/11/16 00:13:56;;;;;;;;;;;;;;;;;;348379;28;822;-77
2021/11/16 00:14:06;;;;;;;;;;;;;;;;;;348498;28;960;-77
2021/11/16 00:14:17;;;;;;;;;;;;;;;;;;349806;28;786;-76
2021/11/16 00:14:30;;;;;;;;;;;;;;;;;;349899;28;869;-77
2021/11/16 00:14:41;;;;;;;;;;;;;;;;;;351266;28;801;-77
2021/11/16 00:14:52;;;;;;;;;;;;;;;;;;351246;28;976;-77
2021/11/16 00:15:03;;;;;;;;;;;;;;;;;;351187;28;980;-76
2021/11/16 00:15:14;;;;;;;;;;;;;;;;;;351249;28;932;-77
2021/11/16 00:15:24;;;;;;;;;;;;;;;;;;351172;28;991;-77
2021/11/16 00:16:01;;;;;;;;;;;;;;;;;;351179;28;837;-76
2021/11/16 00:16:31;;;;;;;;;;;;;;;;;;349813;28;888;-77
2021/11/16 00:16:42;;;;;;;;;;;;;;;;;;348136;28;1098;-77
2021/11/16 00:16:52;;;;;;;;;;;;;;;;;;348347;28;917;-77
2021/11/16 00:17:03;;;;;;;;;;;;;;;;;;348396;28;1184;-77
2021/11/16 00:17:14;;;;;;;;;;;;;;;;;;347262;28;1273;-76
2021/11/16 00:17:24;;;;;;;;;;;;;;;;;;347242;28;1311;-77
2021/11/16 00:17:35;;;;;;;;;;;;;;;;;;347344;28;971;-77
2021/11/16 00:17:46;;;;;;;;;;;;;;;;;;347202;28;1949;-77
2021/11/16 00:17:57;;;;;;;;;;;;;;;;;;348696;28;941;-77
2021/11/16 00:18:07;;;;;;;;;;;;;;;;;;349409;28;846;-77
2021/11/16 00:18:19;;;;;;;;;;;;;;;;;;350077;28;948;-77
2021/11/16 00:18:31;;;;;;;;;;;;;;;;;;350091;28;1105;-77
2021/11/16 00:18:41;;;;;;;;;;;;;;;;;;350128;28;810;-77
2021/11/16 00:19:01;;;;;;;;;;;;;;;;;;349982;28;925;-77
2021/11/16 00:19:14;;;;;;;;;;;;;;;;;;350900;28;895;-77
2021/11/16 00:19:27;;;;;;;;;;;;;;;;;;351381;28;1036;-77
2021/11/16 00:19:37;;;;;;;;;;;;;;;;;;351594;28;999;-77
2021/11/16 00:19:50;;;;;;;;;;;;;;;;;;351639;28;910;-78
2021/11/16 00:20:02;;;;;;;;;;;;;;;;;;351592;28;837;-77
2021/11/16 00:20:14;;;;;;;;;;;;;;;;;;351559;28;820;-77
2021/11/16 00:20:25;;;;;;;;;;;;;;;;;;351510;28;895;-76
2021/11/16 00:20:40;;;;;;;;;;;;;;;;;;351482;28;1146;-76
2021/11/16 00:20:51;;;;;;;;;;;;;;;;;;351562;28;789;-77
2021/11/16 00:21:04;;;;;;;;;;;;;;;;;;351489;28;868;-78
2021/11/16 00:21:18;;;;;;;;;;;;;;;;;;351449;28;1795;-77
2021/11/16 00:21:28;;;;;;;;;;;;;;;;;;351460;28;955;-77
2021/11/16 00:21:43;;;;;;;;;;;;;;;;;;351536;28;821;-77
2021/11/16 00:21:57;;;;;;;;;;;;;;;;;;351521;28;1030;-77
2021/11/16 00:22:08;;;;;;;;;;;;;;;;;;351541;28;884;-77
2021/11/16 00:22:34;;;;;;;;;;;;;;;;;;351516;28;999;-76
2021/11/16 00:22:45;;;;;;;;;;;;;;;;;;351453;28;864;-77
2021/11/16 00:22:55;;;;;;;;;;;;;;;;;;351497;28;1027;-76
2021/11/16 00:23:06;;;;;;;;;;;;;;;;;;351500;28;968;-77
2021/11/16 00:23:21;;;;;;;;;;;;;;;;;;351605;28;808;-77
2021/11/16 00:23:35;;;;;;;;;;;;;;;;;;351580;28;904;-77
2021/11/16 00:23:52;;;;;;;;;;;;;;;;;;351455;28;852;-77
2021/11/16 00:24:09;;;;;;;;;;;;;;;;;;351551;28;1007;-77
2021/11/16 00:24:25;;;;;;;;;;;;;;;;;;351381;28;1038;-77
2021/11/16 00:24:40;;;;;;;;;;;;;;;;;;351463;28;790;-77
2021/11/16 00:25:32;;;;;;;;;;;;;;;;;;351500;28;1042;-77
2021/11/16 00:25:39;;;;;;;;;;;;;;;;;;351329;28;976;-77
2021/11/16 00:25:51;;;;;;;;;;;;;;;;;;351485;28;1030;-77
2021/11/16 00:26:04;;;;;;;;;;;;;;;;;;351507;28;1035;-76
2021/11/16 00:26:14;;;;;;;;;;;;;;;;;;351536;28;908;-77
2021/11/16 00:26:25;;;;;;;;;;;;;;;;;;351455;28;935;-77
2021/11/16 00:26:35;;;;;;;;;;;;;;;;;;351546;28;833;-77
2021/11/16 00:26:46;;;;;;;;;;;;;;;;;;351522;28;936;-77
2021/11/16 00:26:56;;;;;;;;;;;;;;;;;;351602;28;979;-77
2021/11/16 00:27:07;;;;;;;;;;;;;;;;;;351637;28;915;-76
2021/11/16 00:27:17;;;;;;;;;;;;;;;;;;351535;28;888;-76
2021/11/16 00:27:27;;;;;;;;;;;;;;;;;;351613;28;950;-77
2021/11/16 00:27:38;;;;;;;;;;;;;;;;;;351587;28;904;-76
2021/11/16 00:27:48;;;;;;;;;;;;;;;;;;351515;28;967;-77
2021/11/16 00:27:59;;;;;;;;;;;;;;;;;;351659;28;833;-77
2021/11/16 00:28:35;;;;;;;;;;;;;;;;;;351688;28;845;-77
2021/11/16 00:28:46;;;;;;;;;;;;;;;;;;351483;28;892;-77
2021/11/16 00:28:56;;;;;;;;;;;;;;;;;;351465;28;967;-77
2021/11/16 00:29:07;;;;;;;;;;;;;;;;;;351480;28;967;-76
2021/11/16 00:29:17;;;;;;;;;;;;;;;;;;351540;28;822;-76
2021/11/16 00:29:27;;;;;;;;;;;;;;;;;;351454;28;856;-77
2021/11/16 00:29:38;;;;;;;;;;;;;;;;;;351452;28;785;-77
2021/11/16 00:30:04;;;;;;;;;;;;;;;;;;351458;28;1143;-77
2021/11/16 00:30:15;;;;;;;;;;;;;;;;;;351474;28;920;-76
2021/11/16 00:30:25;;;;;;;;;;;;;;;;;;351488;28;880;-77
2021/11/16 00:30:36;;;;;;;;;;;;;;;;;;351425;28;963;-78
2021/11/16 00:30:46;;;;;;;;;;;;;;;;;;351526;28;917;-77
2021/11/16 00:30:56;;;;;;;;;;;;;;;;;;351531;28;968;-77
2021/11/16 00:31:45;;;;;;;;;;;;;;;;;;351430;28;920;-77
2021/11/16 00:31:55;;;;;;;;;;;;;;;;;;351518;28;841;-77
2021/11/16 00:32:06;;;;;;;;;;;;;;;;;;351559;28;864;-77
2021/11/16 00:32:16;;;;;;;;;;;;;;;;;;351386;28;868;-77
2021/11/16 00:32:27;;;;;;;;;;;;;;;;;;351581;28;848;-77
2021/11/16 00:32:38;;;;;;;;;;;;;;;;;;351644;28;836;-77
2021/11/16 00:32:48;;;;;;;;;;;;;;;;;;351639;28;920;-77
2021/11/16 00:32:58;;;;;;;;;;;;;;;;;;351615;28;958;-76
2021/11/16 00:33:09;;;;;;;;;;;;;;;;;;351686;28;990;-77
2021/11/16 00:33:21;;;;;;;;;;;;;;;;;;351664;28;872;-77
2021/11/16 00:33:31;;;;;;;;;;;;;;;;;;351597;28;880;-77
2021/11/16 00:33:43;;;;;;;;;;;;;;;;;;351457;28;806;-78
2021/11/16 00:33:54;;;;;;;;;;;;;;;;;;351517;28;805;-77
2021/11/16 00:34:04;;;;;;;;;;;;;;;;;;349973;28;1471;-77
2021/11/16 00:34:15;;;;;;;;;;;;;;;;;;350062;28;1059;-77
2021/11/16 00:34:40;;;;;;;;;;;;;;;;;;349987;28;1022;-77
2021/11/16 00:34:51;;;;;;;;;;;;;;;;;;350040;28;912;-77
2021/11/16 00:35:02;;;;;;;;;;;;;;;;;;350055;28;983;-76
2021/11/16 00:35:13;;;;;;;;;;;;;;;;;;350090;28;770;-77
2021/11/16 00:35:23;;;;;;;;;;;;;;;;;;349972;28;1254;-76
2021/11/16 00:35:37;;;;;;;;;;;;;;;;;;350175;28;1020;-77
2021/11/16 00:35:49;;;;;;;;;;;;;;;;;;351514;28;880;-77
2021/11/16 00:35:59;;;;;;;;;;;;;;;;;;350580;28;984;-76
2021/11/16 00:36:10;;;;;;;;;;;;;;;;;;351029;28;972;-77
2021/11/16 00:36:56;;;;;;;;;;;;;;;;;;344441;28;1642;-77
2021/11/16 00:37:07;;;;;;;;;;;;;;;;;;344552;28;913;-77
2021/11/16 00:37:25;;;;;;;;;;;;;;;;;;344604;28;1024;-76
2021/11/16 00:37:35;;;;;;;;;;;;;;;;;;344551;28;822;-77
2021/11/16 00:37:46;;;;;;;;;;;;;;;;;;344484;28;1971;-77
2021/11/16 00:37:56;;;;;;;;;;;;;;;;;;343915;28;1331;-77
2021/11/16 00:38:08;;;;;;;;;;;;;;;;;;344577;28;980;-77
2021/11/16 00:38:20;;;;;;;;;;;;;;;;;;344547;28;945;-78
2021/11/16 00:38:30;;;;;;;;;;;;;;;;;;344586;28;908;-77
2021/11/16 00:38:41;;;;;;;;;;;;;;;;;;344491;28;984;-77
2021/11/16 00:38:52;;;;;;;;;;;;;;;;;;344399;28;1040;-78
2021/11/16 00:39:17;;;;;;;;;;;;;;;;;;344274;28;1052;-77
2021/11/16 00:39:55;;;;;;;;;;;;;;;;;;343974;28;886;-77
2021/11/16 00:40:07;;;;;;;;;;;;;;;;;;344554;28;865;-77
2021/11/16 00:40:19;;;;;;;;;;;;;;;;;;345860;28;818;-77
2021/11/16 00:40:45;;;;;;;;;;;;;;;;;;345930;28;917;-77
2021/11/16 00:40:56;;;;;;;;;;;;;;;;;;345879;28;1130;-76
2021/11/16 00:41:06;;;;;;;;;;;;;;;;;;345837;28;826;-77
2021/11/16 00:41:16;;;;;;;;;;;;;;;;;;345977;28;920;-77
2021/11/16 00:41:27;;;;;;;;;;;;;;;;;;345885;28;936;-77
2021/11/16 00:41:38;;;;;;;;;;;;;;;;;;344632;28;849;-77
2021/11/16 00:43:33;;;;;;;;;;;;;;;;;;344984;28;945;-77
2021/11/16 00:44:43;;;;;;;;;;;;;;;;;;343187;28;1127;-77
2021/11/16 00:44:56;;;;;;;;;;;;;;;;;;343126;28;803;-76
2021/11/16 00:45:07;;;;;;;;;;;;;;;;;;345451;28;1020;-77
2021/11/16 00:45:17;;;;;;;;;;;;;;;;;;345886;28;1044;-77
2021/11/16 00:45:28;;;;;;;;;;;;;;;;;;345870;28;920;-77
2021/11/16 00:45:40;;;;;;;;;;;;;;;;;;345876;28;1020;-77
2021/11/16 00:45:50;;;;;;;;;;;;;;;;;;345927;28;913;-77
2021/11/16 00:46:01;;;;;;;;;;;;;;;;;;345877;28;1082;-77
2021/11/16 00:46:11;;;;;;;;;;;;;;;;;;344607;28;834;-77
2021/11/16 00:46:47;;;;;;;;;;;;;;;;;;344586;28;1012;-77
2021/11/16 00:46:58;;;;;;;;;;;;;;;;;;344526;28;969;-77
2021/11/16 00:47:08;;;;;;;;;;;;;;;;;;344511;28;986;-77
2021/11/16 00:47:46;;;;;;;;;;;;;;;;;;350832;28;787;-77
2021/11/16 00:47:56;;;;;;;;;;;;;;;;;;351476;28;789;-76
2021/11/16 00:48:08;;;;;;;;;;;;;;;;;;351509;28;931;-77
2021/11/16 00:48:23;;;;;;;;;;;;;;;;;;351626;28;864;-77
2021/11/16 00:48:34;;;;;;;;;;;;;;;;;;351582;28;908;-77
2021/11/16 00:49:10;;;;;;;;;;;;;;;;;;351480;28;940;-77
2021/11/16 00:49:20;;;;;;;;;;;;;;;;;;351575;28;1022;-76
2021/11/16 00:49:31;;;;;;;;;;;;;;;;;;351557;28;1039;-76
2021/11/16 00:49:42;;;;;;;;;;;;;;;;;;351618;28;975;-77
2021/11/16 00:49:52;;;;;;;;;;;;;;;;;;351482;28;1294;-76
2021/11/16 00:50:03;;;;;;;;;;;;;;;;;;351424;28;963;-77
2021/11/16 00:50:17;;;;;;;;;;;;;;;;;;351553;28;967;-77
2021/11/16 00:50:27;;;;;;;;;;;;;;;;;;351622;28;1043;-77
2021/11/16 00:50:45;;;;;;;;;;;;;;;;;;351619;28;963;-77
2021/11/16 00:51:06;;;;;;;;;;;;;;;;;;351507;28;1058;-76
2021/11/16 00:51:16;;;;;;;;;;;;;;;;;;351645;28;884;-77
2021/11/16 00:51:26;;;;;;;;;;;;;;;;;;351549;28;908;-77
2021/11/16 00:51:37;;;;;;;;;;;;;;;;;;351645;28;896;-76
2021/11/16 00:51:47;;;;;;;;;;;;;;;;;;351555;28;1035;-76
2021/11/16 00:51:58;;;;;;;;;;;;;;;;;;351559;28;984;-77
2021/11/16 00:52:08;;;;;;;;;;;;;;;;;;351547;28;497;-77
2021/11/16 00:52:19;;;;;;;;;;;;;;;;;;351609;28;924;-77
2021/11/16 00:52:30;;;;;;;;;;;;;;;;;;351613;28;979;-77
2021/11/16 00:52:49;;;;;;;;;;;;;;;;;;351625;28;900;-77
2021/11/16 00:53:00;;;;;;;;;;;;;;;;;;351654;28;871;-76
2021/11/16 00:53:52;;;;;;;;;;;;;;;;;;351492;28;478;-77
2021/11/16 00:54:02;;;;;;;;;;;;;;;;;;351498;28;912;-77
2021/11/16 00:54:13;;;;;;;;;;;;;;;;;;351610;28;1058;-77
2021/11/16 00:54:23;;;;;;;;;;;;;;;;;;351524;28;761;-77
2021/11/16 00:54:37;;;;;;;;;;;;;;;;;;351549;28;936;-77
2021/11/16 00:55:03;;;;;;;;;;;;;;;;;;351531;28;877;-77
2021/11/16 00:55:14;;;;;;;;;;;;;;;;;;351499;28;861;-76
2021/11/16 00:55:25;;;;;;;;;;;;;;;;;;351560;28;948;-77
2021/11/16 00:55:35;;;;;;;;;;;;;;;;;;351585;28;956;-77
2021/11/16 00:55:46;;;;;;;;;;;;;;;;;;351605;28;825;-76
2021/11/16 00:55:57;;;;;;;;;;;;;;;;;;351554;28;1019;-77
2021/11/16 00:56:08;;;;;;;;;;;;;;;;;;351607;28;769;-77
2021/11/16 00:56:19;;;;;;;;;;;;;;;;;;351563;28;836;-76
2021/11/16 00:56:29;;;;;;;;;;;;;;;;;;351620;28;805;-76
2021/11/16 00:56:40;;;;;;;;;;;;;;;;;;351409;28;837;-77
2021/11/16 00:56:50;;;;;;;;;;;;;;;;;;351491;28;1019;-76
2021/11/16 00:57:02;;;;;;;;;;;;;;;;;;351478;28;912;-77
2021/11/16 00:57:12;;;;;;;;;;;;;;;;;;351497;28;876;-78
2021/11/16 00:57:41;;;;;;;;;;;;;;;;;;351383;28;991;-77
2021/11/16 00:57:51;;;;;;;;;;;;;;;;;;351361;28;1889;-80
2021/11/16 00:58:28;;;;;;;;;;;;;;;;;;351431;28;968;-79
2021/11/16 00:58:39;;;;;;;;;;;;;;;;;;351534;28;912;-79
2021/11/16 00:58:50;;;;;;;;;;;;;;;;;;351504;28;805;-79
2021/11/16 00:59:00;;;;;;;;;;;;;;;;;;351565;28;896;-79
2021/11/16 00:59:10;;;;;;;;;;;;;;;;;;351502;28;971;-79
2021/11/16 00:59:21;;;;;;;;;;;;;;;;;;351360;28;1002;-79
2021/11/16 00:59:32;;;;;;;;;;;;;;;;;;351419;28;987;-80
2021/11/16 00:59:42;;;;;;;;;;;;;;;;;;351427;28;991;-79
2021/11/16 00:59:55;;;;;;;;;;;;;;;;;;351441;28;932;-79
2021/11/16 01:00:07;;;;;;;;;;;;;;;;;;351450;28;754;-79
2021/11/16 01:00:18;;;;;;;;;;;;;;;;;;351354;28;929;-79
2021/11/16 01:00:30;;;;;;;;;;;;;;;;;;351366;28;1031;-79
2021/11/16 01:00:42;;;;;;;;;;;;;;;;;;351441;28;1043;-79
2021/11/16 01:00:54;;;;;;;;;;;;;;;;;;351405;28;932;-79
2021/11/16 01:01:04;;;;;;;;;;;;;;;;;;351402;28;928;-79
2021/11/16 01:01:15;;;;;;;;;;;;;;;;;;351457;28;952;-79
2021/11/16 01:01:25;;;;;;;;;;;;;;;;;;351508;28;1060;-79
2021/11/16 01:01:36;;;;;;;;;;;;;;;;;;351571;28;837;-79
2021/11/16 01:01:46;;;;;;;;;;;;;;;;;;351635;28;852;-80
2021/11/16 01:01:57;;;;;;;;;;;;;;;;;;351560;28;1000;-80
2021/11/16 01:02:08;;;;;;;;;;;;;;;;;;351568;28;786;-80
2021/11/16 01:02:18;;;;;;;;;;;;;;;;;;351615;28;813;-79
2021/11/16 01:02:28;;;;;;;;;;;;;;;;;;351569;28;782;-80
2021/11/16 01:02:39;;;;;;;;;;;;;;;;;;351586;28;770;-79
2021/11/16 01:02:49;;;;;;;;;;;;;;;;;;351611;28;794;-79
2021/11/16 01:03:00;;;;;;;;;;;;;;;;;;351561;28;891;-79
2021/11/16 01:03:11;;;;;;;;;;;;;;;;;;351589;28;983;-79
2021/11/16 01:03:22;;;;;;;;;;;;;;;;;;351467;28;920;-78
2021/11/16 01:03:32;;;;;;;;;;;;;;;;;;351565;28;983;-79
2021/11/16 01:03:43;;;;;;;;;;;;;;;;;;351587;28;793;-80
2021/11/16 01:03:54;;;;;;;;;;;;;;;;;;351555;28;1648;-79
2021/11/16 01:04:04;;;;;;;;;;;;;;;;;;351597;28;884;-79
2021/11/16 01:04:15;;;;;;;;;;;;;;;;;;351654;28;856;-79
2021/11/16 01:04:27;;;;;;;;;;;;;;;;;;351565;28;1003;-80
2021/11/16 01:04:39;;;;;;;;;;;;;;;;;;351540;28;790;-80
2021/11/16 01:04:51;;;;;;;;;;;;;;;;;;351522;28;928;-79
2021/11/16 01:05:01;;;;;;;;;;;;;;;;;;351568;28;892;-80
2021/11/16 01:05:30;;;;;;;;;;;;;;;;;;351450;28;616;-79
2021/11/16 01:05:41;;;;;;;;;;;;;;;;;;351494;28;912;-79
2021/11/16 01:06:29;;;;;;;;;;;;;;;;;;351500;28;907;-79
2021/11/16 01:06:40;;;;;;;;;;;;;;;;;;351580;28;852;-81
2021/11/16 01:06:50;;;;;;;;;;;;;;;;;;351642;28;832;-81
2021/11/16 01:07:02;;;;;;;;;;;;;;;;;;351558;28;987;-80
2021/11/16 01:07:25;;;;;;;;;;;;;;;;;;351572;28;1026;-80
2021/11/16 01:07:36;;;;;;;;;;;;;;;;;;351561;28;979;-79
2021/11/16 01:07:46;;;;;;;;;;;;;;;;;;351532;28;884;-79
2021/11/16 01:07:57;;;;;;;;;;;;;;;;;;351592;28;939;-79
2021/11/16 01:08:08;;;;;;;;;;;;;;;;;;351566;28;986;-79
2021/11/16 01:08:18;;;;;;;;;;;;;;;;;;351493;28;920;-79
2021/11/16 01:08:29;;;;;;;;;;;;;;;;;;351583;28;1015;-80
2021/11/16 01:08:39;;;;;;;;;;;;;;;;;;351527;28;928;-80
2021/11/16 01:08:49;;;;;;;;;;;;;;;;;;351625;28;912;-79
2021/11/16 01:09:00;;;;;;;;;;;;;;;;;;351597;28;971;-79
2021/11/16 01:09:11;;;;;;;;;;;;;;;;;;351548;28;794;-79
2021/11/16 01:09:21;;;;;;;;;;;;;;;;;;351545;28;485;-79
2021/11/16 01:09:32;;;;;;;;;;;;;;;;;;351571;28;824;-81
2021/11/16 01:09:43;;;;;;;;;;;;;;;;;;351581;28;840;-80
2021/11/16 01:09:54;;;;;;;;;;;;;;;;;;351566;28;865;-79
2021/11/16 01:10:04;;;;;;;;;;;;;;;;;;351386;28;1029;-80
2021/11/16 01:10:17;;;;;;;;;;;;;;;;;;351521;28;1051;-80
2021/11/16 01:10:27;;;;;;;;;;;;;;;;;;351407;28;825;-79
2021/11/16 01:10:39;;;;;;;;;;;;;;;;;;351554;28;916;-81
2021/11/16 01:11:05;;;;;;;;;;;;;;;;;;351422;28;991;-80
2021/11/16 01:11:21;;;;;;;;;;;;;;;;;;351416;28;833;-80
2021/11/16 01:11:31;;;;;;;;;;;;;;;;;;351430;28;829;-80
2021/11/16 01:11:42;;;;;;;;;;;;;;;;;;351472;28;813;-80
2021/11/16 01:12:12;;;;;;;;;;;;;;;;;;351343;28;600;-79
2021/11/16 01:12:23;;;;;;;;;;;;;;;;;;351472;28;797;-79
2021/11/16 01:12:33;;;;;;;;;;;;;;;;;;351450;28;809;-80
2021/11/16 01:12:44;;;;;;;;;;;;;;;;;;352741;28;1488;-80
2021/11/16 01:12:54;;;;;;;;;;;;;;;;;;352841;28;923;-80
2021/11/16 01:13:05;;;;;;;;;;;;;;;;;;352874;28;891;-79
2021/11/16 01:13:17;;;;;;;;;;;;;;;;;;352854;28;972;-80
2021/11/16 01:13:27;;;;;;;;;;;;;;;;;;352824;28;976;-80
2021/11/16 01:13:38;;;;;;;;;;;;;;;;;;352895;28;809;-80
2021/11/16 01:14:37;;;;;;;;;;;;;;;;;;352836;28;663;-81
2021/11/16 01:14:47;;;;;;;;;;;;;;;;;;352840;28;908;-81
2021/11/16 01:14:58;;;;;;;;;;;;;;;;;;352970;28;986;-80
2021/11/16 01:15:10;;;;;;;;;;;;;;;;;;352957;28;845;-80
2021/11/16 01:15:48;;;;;;;;;;;;;;;;;;352880;28;956;-79
2021/11/16 01:15:59;;;;;;;;;;;;;;;;;;352883;28;897;-79
2021/11/16 01:16:10;;;;;;;;;;;;;;;;;;352998;28;856;-80
2021/11/16 01:16:47;;;;;;;;;;;;;;;;;;352799;28;875;-79
2021/11/16 01:16:58;;;;;;;;;;;;;;;;;;352935;28;951;-79
2021/11/16 01:17:09;;;;;;;;;;;;;;;;;;352924;28;884;-81
2021/11/16 01:17:19;;;;;;;;;;;;;;;;;;353026;28;983;-81
2021/11/16 01:17:30;;;;;;;;;;;;;;;;;;352959;28;913;-80
2021/11/16 01:17:40;;;;;;;;;;;;;;;;;;352992;28;904;-79
2021/11/16 01:17:51;;;;;;;;;;;;;;;;;;352887;28;1910;-79
2021/11/16 01:18:01;;;;;;;;;;;;;;;;;;352882;28;916;-81
2021/11/16 01:18:13;;;;;;;;;;;;;;;;;;352792;28;770;-80
2021/11/16 01:18:25;;;;;;;;;;;;;;;;;;352859;28;817;-81
2021/11/16 01:18:35;;;;;;;;;;;;;;;;;;352804;28;896;-80
2021/11/16 01:18:45;;;;;;;;;;;;;;;;;;352900;28;857;-80
2021/11/16 01:18:56;;;;;;;;;;;;;;;;;;352732;28;916;-80
2021/11/16 01:19:07;;;;;;;;;;;;;;;;;;352821;28;968;-81
2021/11/16 01:19:17;;;;;;;;;;;;;;;;;;352892;28;825;-80
2021/11/16 01:19:28;;;;;;;;;;;;;;;;;;352777;28;1028;-81
2021/11/16 01:19:39;;;;;;;;;;;;;;;;;;352881;28;976;-80
2021/11/16 01:19:49;;;;;;;;;;;;;;;;;;352797;28;987;-79
2021/11/16 01:20:00;;;;;;;;;;;;;;;;;;352836;28;860;-79
2021/11/16 01:20:11;;;;;;;;;;;;;;;;;;352905;28;781;-80
2021/11/16 01:20:22;;;;;;;;;;;;;;;;;;353027;28;785;-80
2021/11/16 01:20:32;;;;;;;;;;;;;;;;;;352924;28;928;-80
2021/11/16 01:20:43;;;;;;;;;;;;;;;;;;352850;28;976;-80
2021/11/16 01:20:54;;;;;;;;;;;;;;;;;;351332;28;1158;-81
2021/11/16 01:22:16;;;;;;;;;;;;;;;;;;351418;28;912;-80
2021/11/16 01:22:27;;;;;;;;;;;;;;;;;;351390;28;940;-79
2021/11/16 01:22:38;;;;;;;;;;;;;;;;;;351484;28;817;-80
2021/11/16 01:22:49;;;;;;;;;;;;;;;;;;351809;28;909;-79
2021/11/16 01:23:01;;;;;;;;;;;;;;;;;;352935;28;1046;-79
2021/11/16 01:23:12;;;;;;;;;;;;;;;;;;352903;28;825;-80
2021/11/16 01:23:39;;;;;;;;;;;;;;;;;;352786;28;979;-80
2021/11/16 01:23:49;;;;;;;;;;;;;;;;;;352756;28;1217;-79
2021/11/16 01:24:00;;;;;;;;;;;;;;;;;;352856;28;904;-80
2021/11/16 01:24:11;;;;;;;;;;;;;;;;;;352831;28;920;-80
2021/11/16 01:24:47;;;;;;;;;;;;;;;;;;352865;28;1003;-81
2021/11/16 01:24:57;;;;;;;;;;;;;;;;;;352814;28;884;-80
2021/11/16 01:25:10;;;;;;;;;;;;;;;;;;352830;28;834;-80
2021/11/16 01:25:20;;;;;;;;;;;;;;;;;;352813;28;944;-81
2021/11/16 01:25:36;;;;;;;;;;;;;;;;;;352749;28;862;-80
2021/11/16 01:26:02;;;;;;;;;;;;;;;;;;352701;28;972;-80
2021/11/16 01:26:13;;;;;;;;;;;;;;;;;;352827;28;912;-80
2021/11/16 01:26:23;;;;;;;;;;;;;;;;;;352808;28;994;-80
2021/11/16 01:26:34;;;;;;;;;;;;;;;;;;352799;28;916;-80
2021/11/16 01:26:53;;;;;;;;;;;;;;;;;;352796;28;860;-80
2021/11/16 01:27:06;;;;;;;;;;;;;;;;;;352879;28;1031;-81
2021/11/16 01:27:18;;;;;;;;;;;;;;;;;;352809;28;1051;-80
2021/11/16 01:27:34;;;;;;;;;;;;;;;;;;352955;28;802;-80
2021/11/16 01:27:44;;;;;;;;;;;;;;;;;;352797;28;1116;-81
2021/11/16 01:28:00;;;;;;;;;;;;;;;;;;352911;28;842;-80
2021/11/16 01:28:12;;;;;;;;;;;;;;;;;;352981;28;856;-80
2021/11/16 01:28:26;;;;;;;;;;;;;;;;;;352909;28;855;-81
2021/11/16 01:29:04;;;;;;;;;;;;;;;;;;352891;28;952;-80
2021/11/16 01:29:14;;;;;;;;;;;;;;;;;;352837;28;1023;-81
2021/11/16 01:29:25;;;;;;;;;;;;;;;;;;352784;28;1018;-80
2021/11/16 01:29:38;;;;;;;;;;;;;;;;;;352881;28;1047;-79
2021/11/16 01:30:17;;;;;;;;;;;;;;;;;;352781;28;960;-80
2021/11/16 01:30:30;;;;;;;;;;;;;;;;;;352771;28;999;-81
2021/11/16 01:30:43;;;;;;;;;;;;;;;;;;352795;28;908;-79
2021/11/16 01:30:57;;;;;;;;;;;;;;;;;;352712;28;979;-79
2021/11/16 01:31:08;;;;;;;;;;;;;;;;;;352810;28;951;-80
2021/11/16 01:31:18;;;;;;;;;;;;;;;;;;352948;28;923;-80
2021/11/16 01:31:44;;;;;;;;;;;;;;;;;;352992;28;564;-79
2021/11/16 01:31:56;;;;;;;;;;;;;;;;;;352916;28;805;-80
2021/11/16 01:32:14;;;;;;;;;;;;;;;;;;352903;28;1801;-80
2021/11/16 01:32:43;;;;;;;;;;;;;;;;;;352913;28;841;-79
2021/11/16 01:33:05;;;;;;;;;;;;;;;;;;352729;28;1295;-80
2021/11/16 01:33:20;;;;;;;;;;;;;;;;;;352802;28;1062;-79
2021/11/16 01:33:56;;;;;;;;;;;;;;;;;;352833;28;956;-80
2021/11/16 01:34:08;;;;;;;;;;;;;;;;;;352777;28;1015;-81
2021/11/16 01:34:24;;;;;;;;;;;;;;;;;;351418;28;829;-80
2021/11/16 01:34:34;;;;;;;;;;;;;;;;;;351338;28;1062;-80
2021/11/16 01:34:46;;;;;;;;;;;;;;;;;;351428;28;833;-80
2021/11/16 01:35:23;;;;;;;;;;;;;;;;;;352830;28;816;-79
2021/11/16 01:36:00;;;;;;;;;;;;;;;;;;352701;28;809;-80
2021/11/16 01:36:12;;;;;;;;;;;;;;;;;;352777;28;1066;-80
2021/11/16 01:36:22;;;;;;;;;;;;;;;;;;352915;28;1039;-79
2021/11/16 01:36:33;;;;;;;;;;;;;;;;;;352806;28;1614;-79
2021/11/16 01:36:43;;;;;;;;;;;;;;;;;;352848;28;916;-80
2021/11/16 01:36:54;;;;;;;;;;;;;;;;;;352862;28;1011;-80
2021/11/16 01:37:04;;;;;;;;;;;;;;;;;;352908;28;971;-81
2021/11/16 01:37:15;;;;;;;;;;;;;;;;;;352817;28;869;-80
2021/11/16 01:37:25;;;;;;;;;;;;;;;;;;352802;28;916;-80
2021/11/16 01:37:36;;;;;;;;;;;;;;;;;;351385;28;924;-79
2021/11/16 01:37:47;;;;;;;;;;;;;;;;;;350024;28;834;-80
2021/11/16 01:37:57;;;;;;;;;;;;;;;;;;349950;28;1970;-79
2021/11/16 01:38:09;;;;;;;;;;;;;;;;;;350023;28;790;-79
2021/11/16 01:38:22;;;;;;;;;;;;;;;;;;350020;28;801;-79
2021/11/16 01:38:33;;;;;;;;;;;;;;;;;;350049;28;837;-80
2021/11/16 01:38:43;;;;;;;;;;;;;;;;;;350096;28;845;-79
2021/11/16 01:39:20;;;;;;;;;;;;;;;;;;351453;28;864;-80
2021/11/16 01:39:30;;;;;;;;;;;;;;;;;;351897;28;1023;-80
2021/11/16 01:40:16;;;;;;;;;;;;;;;;;;352894;28;1036;-80
2021/11/16 01:40:27;;;;;;;;;;;;;;;;;;352888;28;1027;-80
2021/11/16 01:40:38;;;;;;;;;;;;;;;;;;352914;28;816;-79
2021/11/16 01:40:50;;;;;;;;;;;;;;;;;;352954;28;880;-79
2021/11/16 01:41:01;;;;;;;;;;;;;;;;;;352887;28;785;-80
2021/11/16 01:41:11;;;;;;;;;;;;;;;;;;352828;28;809;-79
2021/11/16 01:41:22;;;;;;;;;;;;;;;;;;352855;28;924;-80
2021/11/16 01:41:59;;;;;;;;;;;;;;;;;;352767;28;813;-80
2021/11/16 01:42:10;;;;;;;;;;;;;;;;;;352845;28;1130;-79
2021/11/16 01:42:21;;;;;;;;;;;;;;;;;;352789;28;983;-79
2021/11/16 01:42:31;;;;;;;;;;;;;;;;;;352824;28;999;-79